Terminal Aerodrome Forecast
Issued by NWS

Home | Current Version | Previous Version | Text Only | Print | Product List | Glossary On
Versions: 1 2 3 4 5 6 7 8 9 10 11 12 13 14 15 16 17 18 19 20 21
000
FTUS44 KMOB 161100
TAFBFM
TAF
KBFM 161132Z 1612/1712 31004KT P6SM SCT040 BKN200
     FM161700 04007KT P6SM VCTS SCT040CB BKN200
      TEMPO 1619/1623 3SM TSRA BKN020CB
     FM170000 35003KT P6SM SCT040 BKN150=

USA.gov is the U.S. government's official web portal to all federal, state and local government web resources and services.